Walnut Creek, CA

11:44 AM PST on December 07, 2016 (GMT -0800)
Rancho Romero Elementary | | Change Station

Elev 323 ft 37.84 °N, 122.03 °W | Updated 37 seconds ago

Mostly Cloudy
Mostly Cloudy
52.0 °F
Feels Like 52.0 °F
N
0.0
Wind Variable Wind from West
Gusts 1.0 mph

Today
High -- | Low -- °F
--% Chance of Precip.
Yesterday
High -- | Low -- °F
Precip. -- in
Pressure 30.17 in
Visibility 10.0 miles
Clouds Mostly Cloudy 10000 ft
Mostly Cloudy 12000 ft
Dew Point 35.4 °F
Humidity 53%
Rainfall 0.00 in
Snow Depth Not available.
7:11 AM 4:48 PM
First Quarter, 55% visible
METAR KCCR 071853Z VRB04KT 10SM BKN100 BKN120 10/M03 A3021 RMK AO2 SLP215 T01001033
Pressure 30.17 in
Visibility 10.0 miles
Clouds Mostly Cloudy 10000 ft
Mostly Cloudy 12000 ft
Dew Point 35.4 °F
Humidity 53%
Rainfall 0.00 in
Snow Depth Not available.
7:11 AM 4:48 PM
First Quarter, 55% visible
METAR KCCR 071853Z VRB04KT 10SM BKN100 BKN120 10/M03 A3021 RMK AO2 SLP215 T01001033

10-Day Weather Forecast

Almanac

Astronomy

Dec. 07, 2016 Rise Set
Actual Time
Civil Twilight
Nautical Twilight
Astronomical Twilight
Moon
Length of Visible Light
Length of Day
Tomorrow will be .
, % of the Moon is Illuminated

Today's Extremes

State Highs State Lows

Community

WunderPhotos

Upload Photos

1,956,164 photos uploaded!

WunderBlog® & News

Nearby

Air Quality

  Air Quality AQ Index Pollutant
Not available.

Snow Depth

Station Depth Elevation

Earthquake Activity

City Distance Mag. Time & Date
Minimum magnitude displayed is 2.5.

Coastal Water Temperatures

Place Temperature

Stations

Nearby Weather Stations

Station Location Temp. Windchill Dew Point Humidity Wind Precip. Elev Updated Type
                   

Watches & Warnings

There are currently no watches in effect.